Terminal Aerodrome Forecast
Issued by NWS Portland, OR

Home | Current Version | Previous Version | Text Only | Print | Product List | Glossary On
Versions: 1 2 3 4 5 6 7 8 9 10 11 12 13 14 15 16 17 18 19 20 21 22 23 24 25 26
000
FTUS46 KPQR 162331
TAFHIO
TAF
KHIO 162331Z 1700/1724 33010KT P6SM SKC
     FM170400 32006KT P6SM SCT050
     FM170900 31003KT P6SM BKN025
     FM171900 36005KT P6SM FEW030=

USA.gov is the U.S. government's official web portal to all federal, state and local government web resources and services.